sensor_id;sensor_type;location;lat;lon;timestamp;pressure;altitude;pressure_sealevel;temperature;humidity
75933;BME280;64803;52.356;5.310;2022-12-18T00:01:17;103236.94;;;-3.54;100.00
75933;BME280;64803;52.356;5.310;2022-12-18T00:03:44;103233.47;;;-3.56;100.00
75933;BME280;64803;52.356;5.310;2022-12-18T00:06:11;103229.13;;;-3.59;100.00
75933;BME280;64803;52.356;5.310;2022-12-18T00:08:37;103227.41;;;-3.60;100.00
75933;BME280;64803;52.356;5.310;2022-12-18T00:11:08;103212.75;;;-3.71;100.00
75933;BME280;64803;52.356;5.310;2022-12-18T00:13:34;103224.13;;;-3.71;100.00
75933;BME280;64803;52.356;5.310;2022-12-18T00:16:02;103232.81;;;-3.69;100.00
75933;BME280;64803;52.356;5.310;2022-12-18T00:18:29;103234.53;;;-3.68;100.00
75933;BME280;64803;52.356;5.310;2022-12-18T00:20:59;103222.25;;;-3.66;100.00
75933;BME280;64803;52.356;5.310;2022-12-18T00:23:27;103221.47;;;-3.69;100.00
75933;BME280;64803;52.356;5.310;2022-12-18T00:25:53;103213.53;;;-3.68;100.00
75933;BME280;64803;52.356;5.310;2022-12-18T00:28:19;103225.00;;;-3.70;100.00
75933;BME280;64803;52.356;5.310;2022-12-18T00:30:46;103217.94;;;-3.68;100.00
75933;BME280;64803;52.356;5.310;2022-12-18T00:33:12;103113.47;;;-4.38;100.00
75933;BME280;64803;52.356;5.310;2022-12-18T00:35:38;103216.41;;;-3.80;100.00
75933;BME280;64803;52.356;5.310;2022-12-18T00:38:05;103208.59;;;-3.83;100.00
75933;BME280;64803;52.356;5.310;2022-12-18T00:40:31;103219.16;;;-3.86;100.00
75933;BME280;64803;52.356;5.310;2022-12-18T00:42:57;103218.34;;;-3.89;100.00
75933;BME280;64803;52.356;5.310;2022-12-18T00:45:29;103213.94;;;-3.87;100.00
75933;BME280;64803;52.356;5.310;2022-12-18T00:47:56;103213.91;;;-3.86;100.00
75933;BME280;64803;52.356;5.310;2022-12-18T00:50:24;103228.69;;;-3.80;100.00
75933;BME280;64803;52.356;5.310;2022-12-18T00:52:51;103220.78;;;-3.79;100.00
75933;BME280;64803;52.356;5.310;2022-12-18T00:55:17;103187.88;;;-3.96;100.00
75933;BME280;64803;52.356;5.310;2022-12-18T00:57:44;103211.19;;;-3.81;100.00
75933;BME280;64803;52.356;5.310;2022-12-18T01:00:13;103208.53;;;-3.80;100.00
75933;BME280;64803;52.356;5.310;2022-12-18T01:02:42;103210.28;;;-3.79;100.00
75933;BME280;64803;52.356;5.310;2022-12-18T01:05:10;103206.69;;;-3.75;100.00
75933;BME280;64803;52.356;5.310;2022-12-18T01:07:37;103204.97;;;-3.76;100.00
75933;BME280;64803;52.356;5.310;2022-12-18T01:10:04;103210.22;;;-3.76;100.00
75933;BME280;64803;52.356;5.310;2022-12-18T01:12:31;103211.16;;;-3.80;100.00
75933;BME280;64803;52.356;5.310;2022-12-18T01:14:57;103212.94;;;-3.82;100.00
75933;BME280;64803;52.356;5.310;2022-12-18T01:17:23;103217.34;;;-3.82;100.00
75933;BME280;64803;52.356;5.310;2022-12-18T01:19:49;103225.25;;;-3.84;100.00
75933;BME280;64803;52.356;5.310;2022-12-18T01:22:15;103226.19;;;-3.88;100.00
75933;BME280;64803;52.356;5.310;2022-12-18T01:24:41;103215.78;;;-3.94;100.00
75933;BME280;64803;52.356;5.310;2022-12-18T01:27:07;103208.91;;;-3.98;100.00
75933;BME280;64803;52.356;5.310;2022-12-18T01:29:33;103195.06;;;-4.07;100.00
75933;BME280;64803;52.356;5.310;2022-12-18T01:32:02;103129.28;;;-4.44;100.00
75933;BME280;64803;52.356;5.310;2022-12-18T01:34:29;103201.09;;;-4.02;100.00
75933;BME280;64803;52.356;5.310;2022-12-18T01:36:55;103198.59;;;-4.08;100.00
75933;BME280;64803;52.356;5.310;2022-12-18T01:39:21;103226.47;;;-4.03;100.00
75933;BME280;64803;52.356;5.310;2022-12-18T01:41:47;103223.00;;;-4.05;100.00
75933;BME280;64803;52.356;5.310;2022-12-18T01:52:38;103232.81;;;-4.16;100.00
75933;BME280;64803;52.356;5.310;2022-12-18T01:55:05;103231.97;;;-4.18;100.00
75933;BME280;64803;52.356;5.310;2022-12-18T01:57:32;103232.84;;;-4.17;100.00
75933;BME280;64803;52.356;5.310;2022-12-18T02:00:06;103256.38;;;-4.13;100.00
75933;BME280;64803;52.356;5.310;2022-12-18T02:02:40;103248.66;;;-4.22;100.00
75933;BME280;64803;52.356;5.310;2022-12-18T02:05:07;103271.16;;;-4.09;100.00
75933;BME280;64803;52.356;5.310;2022-12-18T02:13:12;103284.28;;;-4.09;100.00
75933;BME280;64803;52.356;5.310;2022-12-18T02:18:21;103276.47;;;-4.12;100.00
75933;BME280;64803;52.356;5.310;2022-12-18T02:21:12;103279.09;;;-4.12;100.00
75933;BME280;64803;52.356;5.310;2022-12-18T02:23:55;103280.81;;;-4.11;100.00
75933;BME280;64803;52.356;5.310;2022-12-18T02:26:29;103288.66;;;-4.09;100.00
75933;BME280;64803;52.356;5.310;2022-12-18T02:29:03;103290.44;;;-4.10;100.00
75933;BME280;64803;52.356;5.310;2022-12-18T02:31:36;103287.81;;;-4.10;100.00
75933;BME280;64803;52.356;5.310;2022-12-18T02:34:07;103262.56;;;-4.18;100.00
75933;BME280;64803;52.356;5.310;2022-12-18T02:36:40;103259.00;;;-4.13;100.00
75933;BME280;64803;52.356;5.310;2022-12-18T02:39:10;103250.25;;;-4.12;100.00
75933;BME280;64803;52.356;5.310;2022-12-18T02:41:43;103241.53;;;-4.14;100.00
75933;BME280;64803;52.356;5.310;2022-12-18T02:44:11;103239.84;;;-4.18;100.00
75933;BME280;64803;52.356;5.310;2022-12-18T02:46:49;103140.47;;;-4.83;100.00
75933;BME280;64803;52.356;5.310;2022-12-18T02:49:31;103233.16;;;-4.35;100.00
75933;BME280;64803;52.356;5.310;2022-12-18T02:57:54;103228.19;;;-4.52;100.00
75933;BME280;64803;52.356;5.310;2022-12-18T03:00:37;103215.13;;;-4.57;100.00
75933;BME280;64803;52.356;5.310;2022-12-18T03:03:11;103217.00;;;-4.63;100.00
75933;BME280;64803;52.356;5.310;2022-12-18T03:05:41;103207.59;;;-4.76;100.00
75933;BME280;64803;52.356;5.310;2022-12-18T03:08:15;103205.97;;;-4.83;100.00
75933;BME280;64803;52.356;5.310;2022-12-18T03:11:06;103210.41;;;-4.88;100.00
75933;BME280;64803;52.356;5.310;2022-12-18T03:13:39;103210.53;;;-4.97;100.00
75933;BME280;64803;52.356;5.310;2022-12-18T03:16:11;103211.44;;;-5.00;100.00
75933;BME280;64803;52.356;5.310;2022-12-18T03:18:38;103208.00;;;-5.03;100.00
75933;BME280;64803;52.356;5.310;2022-12-18T03:21:09;103205.47;;;-5.09;100.00
75933;BME280;64803;52.356;5.310;2022-12-18T03:23:45;103206.41;;;-5.13;100.00
75933;BME280;64803;52.356;5.310;2022-12-18T03:26:16;103200.34;;;-5.18;100.00
75933;BME280;64803;52.356;5.310;2022-12-18T03:28:50;103207.38;;;-5.20;100.00
75933;BME280;64803;52.356;5.310;2022-12-18T03:31:20;103193.41;;;-5.22;100.00
75933;BME280;64803;52.356;5.310;2022-12-18T03:33:54;103189.09;;;-5.26;100.00
75933;BME280;64803;52.356;5.310;2022-12-18T03:36:26;103187.41;;;-5.29;100.00
75933;BME280;64803;52.356;5.310;2022-12-18T03:38:52;103187.41;;;-5.29;100.00
75933;BME280;64803;52.356;5.310;2022-12-18T03:41:33;103186.59;;;-5.32;100.00
75933;BME280;64803;52.356;5.310;2022-12-18T03:44:27;103183.13;;;-5.34;100.00
75933;BME280;64803;52.356;5.310;2022-12-18T03:47:35;103174.34;;;-5.33;100.00
75933;BME280;64803;52.356;5.310;2022-12-18T03:50:08;103171.03;;;-5.44;100.00
75933;BME280;64803;52.356;5.310;2022-12-18T03:52:57;103174.56;;;-5.47;100.00
75933;BME280;64803;52.356;5.310;2022-12-18T03:55:28;103182.44;;;-5.48;100.00
75933;BME280;64803;52.356;5.310;2022-12-18T03:58:02;103168.50;;;-5.50;100.00
75933;BME280;64803;52.356;5.310;2022-12-18T04:00:39;103178.09;;;-5.49;100.00
75933;BME280;64803;52.356;5.310;2022-12-18T04:03:08;103177.25;;;-5.53;100.00
75933;BME280;64803;52.356;5.310;2022-12-18T04:05:42;103183.38;;;-5.55;100.00
75933;BME280;64803;52.356;5.310;2022-12-18T04:08:09;103172.97;;;-5.58;100.00
75933;BME280;64803;52.356;5.310;2022-12-18T04:10:39;103179.09;;;-5.62;100.00
75933;BME280;64803;52.356;5.310;2022-12-18T04:13:05;103167.78;;;-5.64;100.00
75933;BME280;64803;52.356;5.310;2022-12-18T04:15:35;103160.84;;;-5.65;100.00
75933;BME280;64803;52.356;5.310;2022-12-18T04:18:03;103158.28;;;-5.68;100.00
75933;BME280;64803;52.356;5.310;2022-12-18T04:20:36;103089.91;;;-6.10;100.00
75933;BME280;64803;52.356;5.310;2022-12-18T04:23:03;103157.44;;;-5.74;100.00
75933;BME280;64803;52.356;5.310;2022-12-18T04:25:29;103155.72;;;-5.75;100.00
75933;BME280;64803;52.356;5.310;2022-12-18T04:28:05;103151.38;;;-5.76;100.00
75933;BME280;64803;52.356;5.310;2022-12-18T04:30:32;103151.38;;;-5.76;100.00
75933;BME280;64803;52.356;5.310;2022-12-18T04:32:58;103151.38;;;-5.76;100.00
75933;BME280;64803;52.356;5.310;2022-12-18T04:35:25;103148.78;;;-5.79;99.97
75933;BME280;64803;52.356;5.310;2022-12-18T04:37:51;103161.03;;;-5.82;100.00
75933;BME280;64803;52.356;5.310;2022-12-18T04:40:17;103170.69;;;-5.84;100.00
75933;BME280;64803;52.356;5.310;2022-12-18T04:42:46;103160.34;;;-5.95;99.93
75933;BME280;64803;52.356;5.310;2022-12-18T04:45:12;103167.25;;;-5.88;99.58
75933;BME280;64803;52.356;5.310;2022-12-18T04:47:38;103164.69;;;-5.94;99.92
75933;BME280;64803;52.356;5.310;2022-12-18T04:50:04;103164.75;;;-5.98;100.00
75933;BME280;64803;52.356;5.310;2022-12-18T04:52:31;103180.44;;;-5.97;99.65
75933;BME280;64803;52.356;5.310;2022-12-18T04:54:57;103198.75;;;-5.98;100.00
75933;BME280;64803;52.356;5.310;2022-12-18T04:57:23;103200.50;;;-6.00;100.00
75933;BME280;64803;52.356;5.310;2022-12-18T04:59:49;103204.00;;;-6.01;99.58
75933;BME280;64803;52.356;5.310;2022-12-18T05:02:15;103203.16;;;-6.05;100.00
75933;BME280;64803;52.356;5.310;2022-12-18T05:04:41;103208.41;;;-6.08;99.32
75933;BME280;64803;52.356;5.310;2022-12-18T05:07:07;103201.53;;;-6.16;100.00
75933;BME280;64803;52.356;5.310;2022-12-18T05:09:33;103199.81;;;-6.19;100.00
75933;BME280;64803;52.356;5.310;2022-12-18T05:12:00;103215.47;;;-6.16;99.95
75933;BME280;64803;52.356;5.310;2022-12-18T05:14:26;103226.75;;;-6.09;99.43
75933;BME280;64803;52.356;5.310;2022-12-18T05:16:53;103222.34;;;-6.06;99.98
75933;BME280;64803;52.356;5.310;2022-12-18T05:19:19;103216.34;;;-6.14;99.74
75933;BME280;64803;52.356;5.310;2022-12-18T05:21:45;103235.41;;;-6.04;100.00
75933;BME280;64803;52.356;5.310;2022-12-18T05:24:11;103239.78;;;-6.08;99.01
75933;BME280;64803;52.356;5.310;2022-12-18T05:26:37;103227.59;;;-6.06;99.28
75933;BME280;64803;52.356;5.310;2022-12-18T05:29:03;103223.22;;;-6.08;98.95
75933;BME280;64803;52.356;5.310;2022-12-18T05:31:29;103229.34;;;-6.09;98.99
75933;BME280;64803;52.356;5.310;2022-12-18T05:33:55;103228.50;;;-6.11;99.78
75933;BME280;64803;52.356;5.310;2022-12-18T05:36:21;103224.16;;;-6.11;98.72
75933;BME280;64803;52.356;5.310;2022-12-18T05:38:47;103223.28;;;-6.11;99.30
75933;BME280;64803;52.356;5.310;2022-12-18T05:41:13;103216.28;;;-6.09;99.12
75933;BME280;64803;52.356;5.310;2022-12-18T05:43:39;103218.03;;;-6.10;99.19
75933;BME280;64803;52.356;5.310;2022-12-18T05:46:07;103216.28;;;-6.09;99.25
75933;BME280;64803;52.356;5.310;2022-12-18T05:48:33;103209.31;;;-6.12;99.91
75933;BME280;64803;52.356;5.310;2022-12-18T05:51:04;103211.97;;;-6.13;99.70
75933;BME280;64803;52.356;5.310;2022-12-18T05:53:31;103211.94;;;-6.10;100.00
75933;BME280;64803;52.356;5.310;2022-12-18T05:56:02;103152.13;;;-6.42;99.17
75933;BME280;64803;52.356;5.310;2022-12-18T05:58:30;103194.59;;;-6.20;99.89
75933;BME280;64803;52.356;5.310;2022-12-18T06:00:56;103194.56;;;-6.19;99.44
75933;BME280;64803;52.356;5.310;2022-12-18T06:03:23;103196.31;;;-6.16;99.62
75933;BME280;64803;52.356;5.310;2022-12-18T06:05:49;103195.44;;;-6.17;98.87
75933;BME280;64803;52.356;5.310;2022-12-18T06:08:15;103191.06;;;-6.15;98.44
75933;BME280;64803;52.356;5.310;2022-12-18T06:10:41;103191.13;;;-6.19;99.17
75933;BME280;64803;52.356;5.310;2022-12-18T06:13:08;103189.38;;;-6.20;98.46
75933;BME280;64803;52.356;5.310;2022-12-18T06:15:36;103192.03;;;-6.25;98.38
75933;BME280;64803;52.356;5.310;2022-12-18T06:18:02;103198.13;;;-6.26;98.99
75933;BME280;64803;52.356;5.310;2022-12-18T06:20:28;103192.06;;;-6.28;98.58
75933;BME280;64803;52.356;5.310;2022-12-18T06:22:54;103192.97;;;-6.32;98.70
75933;BME280;64803;52.356;5.310;2022-12-18T06:25:20;103195.66;;;-6.36;98.22
75933;BME280;64803;52.356;5.310;2022-12-18T06:27:47;103192.19;;;-6.43;98.00
75933;BME280;64803;52.356;5.310;2022-12-18T06:30:14;103180.88;;;-6.45;98.04
75933;BME280;64803;52.356;5.310;2022-12-18T06:32:40;103161.81;;;-6.53;98.48
75933;BME280;64803;52.356;5.310;2022-12-18T06:35:06;103162.63;;;-6.48;99.09
75933;BME280;64803;52.356;5.310;2022-12-18T06:37:32;103168.78;;;-6.55;98.80
75933;BME280;64803;52.356;5.310;2022-12-18T06:39:58;103154.94;;;-6.63;98.30
75933;BME280;64803;52.356;5.310;2022-12-18T06:42:25;103145.38;;;-6.67;97.54
75933;BME280;64803;52.356;5.310;2022-12-18T06:44:51;103156.66;;;-6.62;97.76
75933;BME280;64803;52.356;5.310;2022-12-18T06:47:18;103159.28;;;-6.63;97.77
75933;BME280;64803;52.356;5.310;2022-12-18T06:49:44;103135.91;;;-6.77;97.88
75933;BME280;64803;52.356;5.310;2022-12-18T06:52:10;103141.91;;;-6.69;98.40
75933;BME280;64803;52.356;5.310;2022-12-18T06:54:36;103132.34;;;-6.70;98.29
75933;BME280;64803;52.356;5.310;2022-12-18T06:57:02;103135.84;;;-6.71;98.13
75933;BME280;64803;52.356;5.310;2022-12-18T06:59:28;103131.53;;;-6.75;98.58
75933;BME280;64803;52.356;5.310;2022-12-18T07:01:54;103128.91;;;-6.75;98.15
75933;BME280;64803;52.356;5.310;2022-12-18T07:04:20;103132.41;;;-6.73;98.29
75933;BME280;64803;52.356;5.310;2022-12-18T07:06:46;103132.38;;;-6.74;97.71
75933;BME280;64803;52.356;5.310;2022-12-18T07:09:12;103123.69;;;-6.75;98.02
75933;BME280;64803;52.356;5.310;2022-12-18T07:11:38;103115.03;;;-6.80;97.77
75933;BME280;64803;52.356;5.310;2022-12-18T07:14:04;103118.47;;;-6.75;98.52
75933;BME280;64803;52.356;5.310;2022-12-18T07:16:30;103121.94;;;-6.73;98.00
75933;BME280;64803;52.356;5.310;2022-12-18T07:18:56;103126.28;;;-6.72;97.72
75933;BME280;64803;52.356;5.310;2022-12-18T07:21:23;103124.53;;;-6.71;98.22
75933;BME280;64803;52.356;5.310;2022-12-18T07:23:49;103114.94;;;-6.69;97.42
75933;BME280;64803;52.356;5.310;2022-12-18T07:26:17;103110.59;;;-6.70;98.03
75933;BME280;64803;52.356;5.310;2022-12-18T07:28:44;103107.03;;;-6.62;97.62
75933;BME280;64803;52.356;5.310;2022-12-18T07:31:16;103107.84;;;-6.58;98.22
75933;BME280;64803;52.356;5.310;2022-12-18T07:33:43;103102.72;;;-6.66;98.06
75933;BME280;64803;52.356;5.310;2022-12-18T07:36:10;103111.34;;;-6.58;97.70
75933;BME280;64803;52.356;5.310;2022-12-18T07:38:36;103102.63;;;-6.57;97.43
75933;BME280;64803;52.356;5.310;2022-12-18T07:41:05;103100.03;;;-6.58;97.49
75933;BME280;64803;52.356;5.310;2022-12-18T07:43:32;103098.31;;;-6.61;97.13
75933;BME280;64803;52.356;5.310;2022-12-18T07:45:58;103094.84;;;-6.63;97.31
75933;BME280;64803;52.356;5.310;2022-12-18T07:48:25;103092.25;;;-6.63;98.29
75933;BME280;64803;52.356;5.310;2022-12-18T07:50:52;103012.47;;;-6.97;97.78
75933;BME280;64803;52.356;5.310;2022-12-18T07:53:18;103074.78;;;-6.58;98.04
75933;BME280;64803;52.356;5.310;2022-12-18T07:55:44;103081.72;;;-6.54;97.52
75933;BME280;64803;52.356;5.310;2022-12-18T07:58:10;103072.94;;;-6.50;98.06
75933;BME280;64803;52.356;5.310;2022-12-18T08:00:36;103059.84;;;-6.48;97.75
75933;BME280;64803;52.356;5.310;2022-12-18T08:03:02;103062.41;;;-6.41;98.92
75933;BME280;64803;52.356;5.310;2022-12-18T08:13:07;103052.47;;;-6.12;98.01
75933;BME280;64803;52.356;5.310;2022-12-18T08:15:33;103074.94;;;-5.96;97.45
75933;BME280;64803;52.356;5.310;2022-12-18T08:17:59;103051.38;;;-5.94;97.78
75933;BME280;64803;52.356;5.310;2022-12-18T08:20:25;103058.06;;;-5.77;97.58
75933;BME280;64803;52.356;5.310;2022-12-18T08:22:51;103066.66;;;-5.65;97.10
75933;BME280;64803;52.356;5.310;2022-12-18T08:25:17;103068.28;;;-5.58;96.97
75933;BME280;64803;52.356;5.310;2022-12-18T08:27:43;103075.13;;;-5.48;96.43
75933;BME280;64803;52.356;5.310;2022-12-18T08:30:09;103078.53;;;-5.43;96.22
75933;BME280;64803;52.356;5.310;2022-12-18T08:32:36;103081.06;;;-5.37;95.91
75933;BME280;64803;52.356;5.310;2022-12-18T08:35:02;103080.13;;;-5.33;96.16
75933;BME280;64803;52.356;5.310;2022-12-18T08:37:28;103085.34;;;-5.30;96.11
75933;BME280;64803;52.356;5.310;2022-12-18T08:39:54;103093.13;;;-5.27;96.07
75933;BME280;64803;52.356;5.310;2022-12-18T08:42:20;103002.34;;;-5.82;96.06
75933;BME280;64803;52.356;5.310;2022-12-18T08:45:05;103087.94;;;-5.29;95.33
75933;BME280;64803;52.356;5.310;2022-12-18T08:47:31;103082.69;;;-5.29;96.21
75933;BME280;64803;52.356;5.310;2022-12-18T08:49:57;103077.44;;;-5.27;95.98
75933;BME280;64803;52.356;5.310;2022-12-18T08:52:23;103084.31;;;-5.22;96.26
75933;BME280;64803;52.356;5.310;2022-12-18T08:54:49;103059.22;;;-5.35;96.44
75933;BME280;64803;52.356;5.310;2022-12-18T08:57:15;103085.00;;;-5.09;96.41
75933;BME280;64803;52.356;5.310;2022-12-18T08:59:41;103057.06;;;-5.10;96.32
75933;BME280;64803;52.356;5.310;2022-12-18T09:02:11;103045.59;;;-5.03;96.33
75933;BME280;64803;52.356;5.310;2022-12-18T09:04:37;103064.38;;;-4.77;95.84
75933;BME280;64803;52.356;5.310;2022-12-18T09:07:03;102795.59;;;-6.23;95.44
75933;BME280;64803;52.356;5.310;2022-12-18T09:09:29;103071.91;;;-4.59;95.39
75933;BME280;64803;52.356;5.310;2022-12-18T09:11:55;102985.28;;;-4.97;95.44
75933;BME280;64803;52.356;5.310;2022-12-18T09:14:21;103065.50;;;-4.43;95.44
75933;BME280;64803;52.356;5.310;2022-12-18T09:16:47;103051.34;;;-4.34;95.23
75933;BME280;64803;52.356;5.310;2022-12-18T09:19:14;103047.72;;;-4.27;95.05
75933;BME280;64803;52.356;5.310;2022-12-18T09:21:40;103050.16;;;-4.20;95.23
75933;BME280;64803;52.356;5.310;2022-12-18T09:24:11;103046.50;;;-4.11;94.87
75933;BME280;64803;52.356;5.310;2022-12-18T09:26:38;103044.56;;;-4.02;94.59
75933;BME280;64803;52.356;5.310;2022-12-18T09:29:04;103046.16;;;-3.95;94.26
75933;BME280;64803;52.356;5.310;2022-12-18T09:31:33;103041.63;;;-3.88;94.12
75933;BME280;64803;52.356;5.310;2022-12-18T09:33:59;103033.97;;;-3.97;94.12
75933;BME280;64803;52.356;5.310;2022-12-18T09:36:25;103039.47;;;-3.68;93.92
75933;BME280;64803;52.356;5.310;2022-12-18T09:38:51;103039.22;;;-3.59;93.44
75933;BME280;64803;52.356;5.310;2022-12-18T09:44:49;103025.94;;;-3.52;93.18
75933;BME280;64803;52.356;5.310;2022-12-18T09:49:42;103024.47;;;-3.26;92.56
75933;BME280;64803;52.356;5.310;2022-12-18T09:55:11;103022.41;;;-3.14;92.19
75933;BME280;64803;52.356;5.310;2022-12-18T09:57:45;103017.00;;;-3.08;91.63
75933;BME280;64803;52.356;5.310;2022-12-18T10:00:17;103009.84;;;-3.03;92.02
75933;BME280;64803;52.356;5.310;2022-12-18T10:02:45;103000.91;;;-2.96;91.53
75933;BME280;64803;52.356;5.310;2022-12-18T10:05:13;103002.66;;;-2.96;91.19
75933;BME280;64803;52.356;5.310;2022-12-18T10:07:55;103008.53;;;-2.85;91.45
75933;BME280;64803;52.356;5.310;2022-12-18T10:13:26;103011.75;;;-2.74;90.47
75933;BME280;64803;52.356;5.310;2022-12-18T10:21:39;102992.03;;;-2.58;90.41
75933;BME280;64803;52.356;5.310;2022-12-18T10:24:16;102991.94;;;-2.55;90.47
75933;BME280;64803;52.356;5.310;2022-12-18T10:26:46;102990.13;;;-2.53;90.24
75933;BME280;64803;52.356;5.310;2022-12-18T10:29:14;102996.91;;;-2.45;90.19
75933;BME280;64803;52.356;5.310;2022-12-18T10:31:41;102995.81;;;-2.38;90.21
75933;BME280;64803;52.356;5.310;2022-12-18T10:34:14;102980.75;;;-2.33;90.15
75933;BME280;64803;52.356;5.310;2022-12-18T10:36:40;102968.38;;;-2.29;90.08
75933;BME280;64803;52.356;5.310;2022-12-18T10:39:21;102971.75;;;-2.24;89.86
75933;BME280;64803;52.356;5.310;2022-12-18T10:42:24;102970.88;;;-2.24;89.49
75933;BME280;64803;52.356;5.310;2022-12-18T10:45:01;102945.78;;;-2.36;89.55
75933;BME280;64803;52.356;5.310;2022-12-18T10:47:29;102982.09;;;-2.18;89.79
75933;BME280;64803;52.356;5.310;2022-12-18T10:49:55;102972.41;;;-2.17;90.00
75933;BME280;64803;52.356;5.310;2022-12-18T10:52:23;102960.34;;;-2.24;88.97
75933;BME280;64803;52.356;5.310;2022-12-18T10:54:55;102952.50;;;-2.26;89.66
75933;BME280;64803;52.356;5.310;2022-12-18T10:57:38;102962.53;;;-2.09;89.67
75933;BME280;64803;52.356;5.310;2022-12-18T11:02:44;102961.47;;;-2.04;89.26
75933;BME280;64803;52.356;5.310;2022-12-18T11:05:31;102960.44;;;-1.98;89.92
75933;BME280;64803;52.356;5.310;2022-12-18T11:07:58;102948.31;;;-2.04;89.30
75933;BME280;64803;52.356;5.310;2022-12-18T11:10:36;102946.22;;;-1.93;88.90
75933;BME280;64803;52.356;5.310;2022-12-18T11:13:17;102941.59;;;-1.85;89.41
75933;BME280;64803;52.356;5.310;2022-12-18T11:15:44;102930.03;;;-1.81;88.38
75933;BME280;64803;52.356;5.310;2022-12-18T11:18:17;102924.78;;;-1.81;88.99
75933;BME280;64803;52.356;5.310;2022-12-18T11:20:57;102921.31;;;-1.83;89.17
75933;BME280;64803;52.356;5.310;2022-12-18T11:23:26;102961.53;;;-1.78;89.18
75933;BME280;64803;52.356;5.310;2022-12-18T11:25:57;102918.34;;;-1.72;88.73
75933;BME280;64803;52.356;5.310;2022-12-18T11:28:42;102927.53;;;-1.58;88.50
75933;BME280;64803;52.356;5.310;2022-12-18T11:36:23;102911.22;;;-1.43;88.28
75933;BME280;64803;52.356;5.310;2022-12-18T11:38:52;102913.78;;;-1.40;87.85
75933;BME280;64803;52.356;5.310;2022-12-18T11:41:33;102910.16;;;-1.37;88.15
75933;BME280;64803;52.356;5.310;2022-12-18T11:44:28;102915.31;;;-1.34;86.98
75933;BME280;64803;52.356;5.310;2022-12-18T11:47:03;102778.28;;;-2.08;87.08
75933;BME280;64803;52.356;5.310;2022-12-18T11:49:35;102905.50;;;-1.29;87.30
75933;BME280;64803;52.356;5.310;2022-12-18T11:52:09;102903.63;;;-1.26;86.59
75933;BME280;64803;52.356;5.310;2022-12-18T11:54:40;102895.50;;;-1.20;86.93
75933;BME280;64803;52.356;5.310;2022-12-18T12:02:21;102874.34;;;-1.18;85.83
75933;BME280;64803;52.356;5.310;2022-12-18T12:05:15;102838.00;;;-1.33;85.61
75933;BME280;64803;52.356;5.310;2022-12-18T12:18:33;102797.63;;;-1.34;86.03
75933;BME280;64803;52.356;5.310;2022-12-18T12:27:10;102828.72;;;-0.95;85.42
75933;BME280;64803;52.356;5.310;2022-12-18T12:40:13;102809.66;;;-0.79;84.95
75933;BME280;64803;52.356;5.310;2022-12-18T12:42:46;102805.22;;;-0.78;85.17
75933;BME280;64803;52.356;5.310;2022-12-18T12:45:47;102803.38;;;-0.76;84.61
75933;BME280;64803;52.356;5.310;2022-12-18T12:48:31;102806.94;;;-0.77;85.15
75933;BME280;64803;52.356;5.310;2022-12-18T12:51:01;102766.38;;;-0.96;84.42
75933;BME280;64803;52.356;5.310;2022-12-18T12:53:35;102793.75;;;-0.77;84.39
75933;BME280;64803;52.356;5.310;2022-12-18T12:56:03;102783.56;;;-0.86;84.22
75933;BME280;64803;52.356;5.310;2022-12-18T12:58:37;102798.41;;;-0.84;84.28
75933;BME280;64803;52.356;5.310;2022-12-18T13:06:54;102797.38;;;-0.80;83.87
75933;BME280;64803;52.356;5.310;2022-12-18T13:09:22;102775.66;;;-0.86;83.44
75933;BME280;64803;52.356;5.310;2022-12-18T13:11:48;102782.41;;;-0.79;84.63
75933;BME280;64803;52.356;5.310;2022-12-18T13:14:36;102791.94;;;-0.75;84.88
75933;BME280;64803;52.356;5.310;2022-12-18T13:19:51;102788.22;;;-0.70;83.58
75933;BME280;64803;52.356;5.310;2022-12-18T13:22:28;102787.47;;;-0.73;83.76
75933;BME280;64803;52.356;5.310;2022-12-18T13:24:55;102790.03;;;-0.72;84.13
75933;BME280;64803;52.356;5.310;2022-12-18T13:28:01;102781.31;;;-0.74;84.31
75933;BME280;64803;52.356;5.310;2022-12-18T13:35:51;102767.13;;;-0.71;84.86
75933;BME280;64803;52.356;5.310;2022-12-18T13:40:58;102747.91;;;-0.73;85.00
75933;BME280;64803;52.356;5.310;2022-12-18T13:43:27;102746.03;;;-0.71;84.24
75933;BME280;64803;52.356;5.310;2022-12-18T13:48:35;102729.19;;;-0.67;84.44
75933;BME280;64803;52.356;5.310;2022-12-18T13:51:07;102720.38;;;-0.66;85.24
75933;BME280;64803;52.356;5.310;2022-12-18T13:53:50;102715.94;;;-0.66;84.09
75933;BME280;64803;52.356;5.310;2022-12-18T13:56:20;102716.78;;;-0.65;84.15
75933;BME280;64803;52.356;5.310;2022-12-18T13:59:08;102708.09;;;-0.67;84.12
75933;BME280;64803;52.356;5.310;2022-12-18T14:01:36;102704.53;;;-0.66;84.72
75933;BME280;64803;52.356;5.310;2022-12-18T14:06:44;102682.00;;;-0.75;84.66
75933;BME280;64803;52.356;5.310;2022-12-18T14:09:34;102710.91;;;-0.72;84.98
75933;BME280;64803;52.356;5.310;2022-12-18T14:12:01;102713.50;;;-0.70;84.70
75933;BME280;64803;52.356;5.310;2022-12-18T14:14:47;102696.78;;;-0.71;84.90
75933;BME280;64803;52.356;5.310;2022-12-18T14:17:15;102689.81;;;-0.72;84.57
75933;BME280;64803;52.356;5.310;2022-12-18T14:19:46;102688.00;;;-0.71;84.47
75933;BME280;64803;52.356;5.310;2022-12-18T14:22:21;102682.69;;;-0.70;84.20
75933;BME280;64803;52.356;5.310;2022-12-18T14:25:25;102681.69;;;-0.67;84.12
75933;BME280;64803;52.356;5.310;2022-12-18T14:27:53;102677.16;;;-0.64;83.62
75933;BME280;64803;52.356;5.310;2022-12-18T14:30:38;102676.25;;;-0.63;83.27
75933;BME280;64803;52.356;5.310;2022-12-18T14:35:58;102530.22;;;-1.45;83.53
75933;BME280;64803;52.356;5.310;2022-12-18T14:38:27;102666.47;;;-0.61;83.60
75933;BME280;64803;52.356;5.310;2022-12-18T14:40:56;102650.84;;;-0.65;82.97
75933;BME280;64803;52.356;5.310;2022-12-18T14:43:27;102660.31;;;-0.60;82.61
75933;BME280;64803;52.356;5.310;2022-12-18T14:45:54;102655.16;;;-0.63;82.43
75933;BME280;64803;52.356;5.310;2022-12-18T14:48:33;102649.69;;;-0.58;82.85
75933;BME280;64803;52.356;5.310;2022-12-18T14:51:14;102645.22;;;-0.56;83.37
75933;BME280;64803;52.356;5.310;2022-12-18T14:54:04;102640.00;;;-0.58;83.29